sensor_id;sensor_type;location;lat;lon;timestamp;P1;durP1;ratioP1;P2;durP2;ratioP2
7881;SDS011;3986;41.884;23.466;2022-11-14T00:00:01;60.93;;;40.80;;
7881;SDS011;3986;41.884;23.466;2022-11-14T00:02:30;58.13;;;41.43;;
7881;SDS011;3986;41.884;23.466;2022-11-14T00:04:58;49.87;;;39.73;;
7881;SDS011;3986;41.884;23.466;2022-11-14T00:07:25;53.90;;;41.77;;
7881;SDS011;3986;41.884;23.466;2022-11-14T00:09:55;48.93;;;40.73;;
7881;SDS011;3986;41.884;23.466;2022-11-14T00:12:22;60.20;;;42.37;;
7881;SDS011;3986;41.884;23.466;2022-11-14T00:14:49;51.40;;;41.50;;
7881;SDS011;3986;41.884;23.466;2022-11-14T00:17:16;59.03;;;43.20;;
7881;SDS011;3986;41.884;23.466;2022-11-14T00:19:43;61.57;;;44.27;;
7881;SDS011;3986;41.884;23.466;2022-11-14T00:22:11;57.73;;;46.37;;
7881;SDS011;3986;41.884;23.466;2022-11-14T00:24:38;73.27;;;48.83;;
7881;SDS011;3986;41.884;23.466;2022-11-14T00:27:05;80.87;;;50.97;;
7881;SDS011;3986;41.884;23.466;2022-11-14T00:29:32;70.70;;;50.40;;
7881;SDS011;3986;41.884;23.466;2022-11-14T00:31:58;70.07;;;53.37;;
7881;SDS011;3986;41.884;23.466;2022-11-14T00:34:25;64.10;;;50.60;;
7881;SDS011;3986;41.884;23.466;2022-11-14T00:36:52;63.20;;;49.50;;
7881;SDS011;3986;41.884;23.466;2022-11-14T00:39:20;67.30;;;52.30;;
7881;SDS011;3986;41.884;23.466;2022-11-14T00:41:47;72.77;;;50.90;;
7881;SDS011;3986;41.884;23.466;2022-11-14T00:44:14;65.93;;;50.20;;
7881;SDS011;3986;41.884;23.466;2022-11-14T00:46:40;64.33;;;46.53;;
7881;SDS011;3986;41.884;23.466;2022-11-14T00:49:07;63.57;;;45.17;;
7881;SDS011;3986;41.884;23.466;2022-11-14T00:51:34;55.33;;;39.87;;
7881;SDS011;3986;41.884;23.466;2022-11-14T00:54:01;56.50;;;34.13;;
7881;SDS011;3986;41.884;23.466;2022-11-14T00:56:30;37.80;;;31.67;;
7881;SDS011;3986;41.884;23.466;2022-11-14T00:58:56;36.53;;;30.07;;
7881;SDS011;3986;41.884;23.466;2022-11-14T01:01:23;40.43;;;30.50;;
7881;SDS011;3986;41.884;23.466;2022-11-14T01:03:50;37.23;;;31.83;;
7881;SDS011;3986;41.884;23.466;2022-11-14T01:06:18;47.60;;;32.13;;
7881;SDS011;3986;41.884;23.466;2022-11-14T01:08:45;52.93;;;33.87;;
7881;SDS011;3986;41.884;23.466;2022-11-14T01:11:14;45.43;;;32.97;;
7881;SDS011;3986;41.884;23.466;2022-11-14T01:13:43;47.60;;;32.17;;
7881;SDS011;3986;41.884;23.466;2022-11-14T01:16:10;54.30;;;33.13;;
7881;SDS011;3986;41.884;23.466;2022-11-14T01:18:37;49.90;;;32.87;;
7881;SDS011;3986;41.884;23.466;2022-11-14T01:21:05;47.27;;;32.23;;
7881;SDS011;3986;41.884;23.466;2022-11-14T01:23:33;42.83;;;34.43;;
7881;SDS011;3986;41.884;23.466;2022-11-14T01:26:01;38.17;;;32.10;;
7881;SDS011;3986;41.884;23.466;2022-11-14T01:28:29;45.47;;;35.30;;
7881;SDS011;3986;41.884;23.466;2022-11-14T01:31:00;40.23;;;32.37;;
7881;SDS011;3986;41.884;23.466;2022-11-14T01:33:33;46.93;;;34.00;;
7881;SDS011;3986;41.884;23.466;2022-11-14T01:36:00;53.93;;;37.27;;
7881;SDS011;3986;41.884;23.466;2022-11-14T01:38:26;41.67;;;34.67;;
7881;SDS011;3986;41.884;23.466;2022-11-14T01:40:53;38.97;;;31.47;;
7881;SDS011;3986;41.884;23.466;2022-11-14T01:43:22;35.27;;;30.97;;
7881;SDS011;3986;41.884;23.466;2022-11-14T01:45:51;42.83;;;31.60;;
7881;SDS011;3986;41.884;23.466;2022-11-14T01:48:25;44.90;;;33.67;;
7881;SDS011;3986;41.884;23.466;2022-11-14T01:50:57;38.27;;;33.37;;
7881;SDS011;3986;41.884;23.466;2022-11-14T01:53:26;39.50;;;34.40;;
7881;SDS011;3986;41.884;23.466;2022-11-14T01:55:54;37.50;;;32.90;;
7881;SDS011;3986;41.884;23.466;2022-11-14T01:58:23;45.73;;;34.83;;
7881;SDS011;3986;41.884;23.466;2022-11-14T02:00:51;49.83;;;35.73;;
7881;SDS011;3986;41.884;23.466;2022-11-14T02:03:18;51.00;;;36.20;;
7881;SDS011;3986;41.884;23.466;2022-11-14T02:05:46;43.33;;;34.50;;
7881;SDS011;3986;41.884;23.466;2022-11-14T02:08:15;46.83;;;34.60;;
7881;SDS011;3986;41.884;23.466;2022-11-14T02:10:43;49.47;;;34.57;;
7881;SDS011;3986;41.884;23.466;2022-11-14T02:13:10;43.50;;;32.77;;
7881;SDS011;3986;41.884;23.466;2022-11-14T02:15:37;36.57;;;32.47;;
7881;SDS011;3986;41.884;23.466;2022-11-14T02:18:04;50.20;;;36.03;;
7881;SDS011;3986;41.884;23.466;2022-11-14T02:20:34;37.67;;;32.07;;
7881;SDS011;3986;41.884;23.466;2022-11-14T02:23:07;36.33;;;32.13;;
7881;SDS011;3986;41.884;23.466;2022-11-14T02:25:35;40.77;;;33.23;;
7881;SDS011;3986;41.884;23.466;2022-11-14T02:28:02;47.83;;;36.67;;
7881;SDS011;3986;41.884;23.466;2022-11-14T02:30:30;73.10;;;40.37;;
7881;SDS011;3986;41.884;23.466;2022-11-14T02:32:58;44.53;;;34.20;;
7881;SDS011;3986;41.884;23.466;2022-11-14T02:35:24;46.07;;;34.17;;
7881;SDS011;3986;41.884;23.466;2022-11-14T02:37:53;50.97;;;36.80;;
7881;SDS011;3986;41.884;23.466;2022-11-14T02:40:19;67.03;;;41.37;;
7881;SDS011;3986;41.884;23.466;2022-11-14T02:42:46;52.97;;;36.43;;
7881;SDS011;3986;41.884;23.466;2022-11-14T02:45:13;54.27;;;38.80;;
7881;SDS011;3986;41.884;23.466;2022-11-14T02:47:40;48.00;;;37.80;;
7881;SDS011;3986;41.884;23.466;2022-11-14T02:50:07;47.37;;;40.47;;
7881;SDS011;3986;41.884;23.466;2022-11-14T02:52:35;51.27;;;40.83;;
7881;SDS011;3986;41.884;23.466;2022-11-14T02:55:03;54.53;;;41.23;;
7881;SDS011;3986;41.884;23.466;2022-11-14T02:57:30;48.33;;;37.93;;
7881;SDS011;3986;41.884;23.466;2022-11-14T02:59:57;66.07;;;40.03;;
7881;SDS011;3986;41.884;23.466;2022-11-14T03:02:24;50.87;;;35.87;;
7881;SDS011;3986;41.884;23.466;2022-11-14T03:04:50;50.70;;;35.33;;
7881;SDS011;3986;41.884;23.466;2022-11-14T03:07:17;55.10;;;37.20;;
7881;SDS011;3986;41.884;23.466;2022-11-14T03:09:44;56.93;;;36.47;;
7881;SDS011;3986;41.884;23.466;2022-11-14T03:12:14;53.93;;;36.30;;
7881;SDS011;3986;41.884;23.466;2022-11-14T03:14:41;55.23;;;37.57;;
7881;SDS011;3986;41.884;23.466;2022-11-14T03:17:09;49.17;;;34.47;;
7881;SDS011;3986;41.884;23.466;2022-11-14T03:19:36;50.10;;;35.13;;
7881;SDS011;3986;41.884;23.466;2022-11-14T03:22:03;51.07;;;34.23;;
7881;SDS011;3986;41.884;23.466;2022-11-14T03:24:30;57.30;;;36.03;;
7881;SDS011;3986;41.884;23.466;2022-11-14T03:26:56;56.17;;;34.80;;
7881;SDS011;3986;41.884;23.466;2022-11-14T03:29:25;52.63;;;34.20;;
7881;SDS011;3986;41.884;23.466;2022-11-14T03:31:51;61.50;;;36.93;;
7881;SDS011;3986;41.884;23.466;2022-11-14T03:34:18;54.07;;;37.70;;
7881;SDS011;3986;41.884;23.466;2022-11-14T03:36:45;50.63;;;35.13;;
7881;SDS011;3986;41.884;23.466;2022-11-14T03:39:12;49.90;;;35.07;;
7881;SDS011;3986;41.884;23.466;2022-11-14T03:41:39;40.37;;;32.67;;
7881;SDS011;3986;41.884;23.466;2022-11-14T03:44:05;43.60;;;32.07;;
7881;SDS011;3986;41.884;23.466;2022-11-14T03:46:33;38.30;;;31.97;;
7881;SDS011;3986;41.884;23.466;2022-11-14T03:49:00;47.77;;;32.80;;
7881;SDS011;3986;41.884;23.466;2022-11-14T03:51:27;49.00;;;34.47;;
7881;SDS011;3986;41.884;23.466;2022-11-14T03:53:54;47.57;;;33.33;;
7881;SDS011;3986;41.884;23.466;2022-11-14T03:56:21;46.17;;;33.20;;
7881;SDS011;3986;41.884;23.466;2022-11-14T03:58:48;57.77;;;34.70;;
7881;SDS011;3986;41.884;23.466;2022-11-14T04:01:15;50.57;;;33.97;;
7881;SDS011;3986;41.884;23.466;2022-11-14T04:03:44;49.37;;;33.73;;
7881;SDS011;3986;41.884;23.466;2022-11-14T04:06:10;44.63;;;34.17;;
7881;SDS011;3986;41.884;23.466;2022-11-14T04:08:38;51.33;;;37.07;;
7881;SDS011;3986;41.884;23.466;2022-11-14T04:11:05;75.30;;;40.23;;
7881;SDS011;3986;41.884;23.466;2022-11-14T04:13:32;64.33;;;39.90;;
7881;SDS011;3986;41.884;23.466;2022-11-14T04:15:59;58.00;;;37.53;;
7881;SDS011;3986;41.884;23.466;2022-11-14T04:18:26;66.70;;;39.00;;
7881;SDS011;3986;41.884;23.466;2022-11-14T04:20:54;57.47;;;40.50;;
7881;SDS011;3986;41.884;23.466;2022-11-14T04:23:21;64.33;;;42.00;;
7881;SDS011;3986;41.884;23.466;2022-11-14T04:25:48;67.73;;;44.13;;
7881;SDS011;3986;41.884;23.466;2022-11-14T04:28:15;46.43;;;40.00;;
7881;SDS011;3986;41.884;23.466;2022-11-14T04:30:42;48.40;;;37.57;;
7881;SDS011;3986;41.884;23.466;2022-11-14T04:33:10;47.93;;;33.97;;
7881;SDS011;3986;41.884;23.466;2022-11-14T04:35:37;38.37;;;33.37;;
7881;SDS011;3986;41.884;23.466;2022-11-14T04:38:05;48.47;;;35.43;;
7881;SDS011;3986;41.884;23.466;2022-11-14T04:40:32;51.83;;;34.67;;
7881;SDS011;3986;41.884;23.466;2022-11-14T04:42:59;51.87;;;33.83;;
7881;SDS011;3986;41.884;23.466;2022-11-14T04:45:25;56.47;;;37.13;;
7881;SDS011;3986;41.884;23.466;2022-11-14T04:47:52;69.97;;;40.47;;
7881;SDS011;3986;41.884;23.466;2022-11-14T04:50:19;46.10;;;35.07;;
7881;SDS011;3986;41.884;23.466;2022-11-14T04:52:46;60.00;;;37.70;;
7881;SDS011;3986;41.884;23.466;2022-11-14T04:55:18;41.90;;;34.37;;
7881;SDS011;3986;41.884;23.466;2022-11-14T04:57:45;54.50;;;37.57;;
7881;SDS011;3986;41.884;23.466;2022-11-14T05:00:12;66.90;;;42.00;;
7881;SDS011;3986;41.884;23.466;2022-11-14T05:02:40;80.73;;;45.00;;
7881;SDS011;3986;41.884;23.466;2022-11-14T05:05:07;62.07;;;41.80;;
7881;SDS011;3986;41.884;23.466;2022-11-14T05:07:34;63.57;;;42.50;;
7881;SDS011;3986;41.884;23.466;2022-11-14T05:10:01;79.47;;;45.23;;
7881;SDS011;3986;41.884;23.466;2022-11-14T05:12:30;90.73;;;46.37;;
7881;SDS011;3986;41.884;23.466;2022-11-14T05:14:56;66.03;;;43.13;;
7881;SDS011;3986;41.884;23.466;2022-11-14T05:17:23;76.23;;;45.63;;
7881;SDS011;3986;41.884;23.466;2022-11-14T05:19:50;69.67;;;43.83;;
7881;SDS011;3986;41.884;23.466;2022-11-14T05:22:17;72.43;;;47.63;;
7881;SDS011;3986;41.884;23.466;2022-11-14T05:24:44;69.23;;;46.13;;
7881;SDS011;3986;41.884;23.466;2022-11-14T05:27:11;69.07;;;43.20;;
7881;SDS011;3986;41.884;23.466;2022-11-14T05:29:39;66.20;;;44.87;;
7881;SDS011;3986;41.884;23.466;2022-11-14T05:32:06;73.43;;;45.23;;
7881;SDS011;3986;41.884;23.466;2022-11-14T05:34:33;78.67;;;48.13;;
7881;SDS011;3986;41.884;23.466;2022-11-14T05:37:00;83.53;;;49.93;;
7881;SDS011;3986;41.884;23.466;2022-11-14T05:39:28;83.07;;;51.50;;
7881;SDS011;3986;41.884;23.466;2022-11-14T05:41:54;75.30;;;46.50;;
7881;SDS011;3986;41.884;23.466;2022-11-14T05:44:21;70.40;;;44.50;;
7881;SDS011;3986;41.884;23.466;2022-11-14T05:46:49;60.77;;;46.00;;
7881;SDS011;3986;41.884;23.466;2022-11-14T05:49:16;60.83;;;40.70;;
7881;SDS011;3986;41.884;23.466;2022-11-14T05:51:43;65.13;;;42.90;;
7881;SDS011;3986;41.884;23.466;2022-11-14T05:54:10;82.80;;;48.57;;
7881;SDS011;3986;41.884;23.466;2022-11-14T05:56:36;87.70;;;52.13;;
7881;SDS011;3986;41.884;23.466;2022-11-14T05:59:03;83.47;;;51.63;;
7881;SDS011;3986;41.884;23.466;2022-11-14T06:01:30;89.07;;;58.63;;
7881;SDS011;3986;41.884;23.466;2022-11-14T06:03:58;113.60;;;60.73;;
7881;SDS011;3986;41.884;23.466;2022-11-14T06:07:31;93.50;;;56.67;;
7881;SDS011;3986;41.884;23.466;2022-11-14T06:09:58;84.80;;;51.17;;
7881;SDS011;3986;41.884;23.466;2022-11-14T06:12:25;101.20;;;58.57;;
7881;SDS011;3986;41.884;23.466;2022-11-14T06:14:52;100.33;;;65.10;;
7881;SDS011;3986;41.884;23.466;2022-11-14T06:17:18;74.27;;;47.80;;
7881;SDS011;3986;41.884;23.466;2022-11-14T06:19:45;111.97;;;55.47;;
7881;SDS011;3986;41.884;23.466;2022-11-14T06:22:12;72.03;;;46.10;;
7881;SDS011;3986;41.884;23.466;2022-11-14T06:24:40;62.90;;;45.30;;
7881;SDS011;3986;41.884;23.466;2022-11-14T06:27:07;67.10;;;44.53;;
7881;SDS011;3986;41.884;23.466;2022-11-14T06:29:34;70.87;;;42.33;;
7881;SDS011;3986;41.884;23.466;2022-11-14T06:32:01;73.43;;;48.20;;
7881;SDS011;3986;41.884;23.466;2022-11-14T06:34:27;72.93;;;44.63;;
7881;SDS011;3986;41.884;23.466;2022-11-14T06:36:54;92.17;;;48.20;;
7881;SDS011;3986;41.884;23.466;2022-11-14T06:39:21;85.20;;;47.80;;
7881;SDS011;3986;41.884;23.466;2022-11-14T06:41:49;98.00;;;53.40;;
7881;SDS011;3986;41.884;23.466;2022-11-14T06:44:16;70.43;;;47.37;;
7881;SDS011;3986;41.884;23.466;2022-11-14T06:46:43;83.13;;;46.60;;
7881;SDS011;3986;41.884;23.466;2022-11-14T06:49:09;66.73;;;43.63;;
7881;SDS011;3986;41.884;23.466;2022-11-14T06:51:36;69.87;;;42.27;;
7881;SDS011;3986;41.884;23.466;2022-11-14T06:54:03;83.20;;;51.13;;
7881;SDS011;3986;41.884;23.466;2022-11-14T06:56:30;68.03;;;48.07;;
7881;SDS011;3986;41.884;23.466;2022-11-14T06:58:58;105.83;;;54.03;;
7881;SDS011;3986;41.884;23.466;2022-11-14T07:01:25;90.83;;;58.27;;
7881;SDS011;3986;41.884;23.466;2022-11-14T07:03:52;109.20;;;64.13;;
7881;SDS011;3986;41.884;23.466;2022-11-14T07:06:21;111.20;;;77.63;;
7881;SDS011;3986;41.884;23.466;2022-11-14T07:08:50;96.93;;;58.40;;
7881;SDS011;3986;41.884;23.466;2022-11-14T07:11:18;76.10;;;53.53;;
7881;SDS011;3986;41.884;23.466;2022-11-14T07:13:47;97.97;;;56.60;;
7881;SDS011;3986;41.884;23.466;2022-11-14T07:16:16;82.30;;;53.83;;
7881;SDS011;3986;41.884;23.466;2022-11-14T07:18:43;97.97;;;56.43;;
7881;SDS011;3986;41.884;23.466;2022-11-14T07:21:10;92.53;;;56.07;;
7881;SDS011;3986;41.884;23.466;2022-11-14T07:23:37;92.30;;;60.63;;
7881;SDS011;3986;41.884;23.466;2022-11-14T07:26:06;93.67;;;62.30;;
7881;SDS011;3986;41.884;23.466;2022-11-14T07:28:35;100.97;;;70.87;;
7881;SDS011;3986;41.884;23.466;2022-11-14T07:31:02;98.27;;;66.63;;
7881;SDS011;3986;41.884;23.466;2022-11-14T07:33:31;88.63;;;69.50;;
7881;SDS011;3986;41.884;23.466;2022-11-14T07:35:58;94.60;;;68.20;;
7881;SDS011;3986;41.884;23.466;2022-11-14T07:38:25;125.77;;;74.03;;
7881;SDS011;3986;41.884;23.466;2022-11-14T07:40:53;94.97;;;74.17;;
7881;SDS011;3986;41.884;23.466;2022-11-14T07:43:20;97.67;;;76.73;;
7881;SDS011;3986;41.884;23.466;2022-11-14T07:45:47;100.03;;;75.43;;
7881;SDS011;3986;41.884;23.466;2022-11-14T07:48:14;124.77;;;82.23;;
7881;SDS011;3986;41.884;23.466;2022-11-14T07:50:43;103.83;;;71.10;;
7881;SDS011;3986;41.884;23.466;2022-11-14T07:53:11;112.93;;;81.10;;
7881;SDS011;3986;41.884;23.466;2022-11-14T07:55:39;109.90;;;80.47;;
7881;SDS011;3986;41.884;23.466;2022-11-14T07:58:06;83.50;;;67.37;;
7881;SDS011;3986;41.884;23.466;2022-11-14T08:00:33;112.63;;;81.03;;
7881;SDS011;3986;41.884;23.466;2022-11-14T08:03:00;120.70;;;84.73;;
7881;SDS011;3986;41.884;23.466;2022-11-14T08:05:26;121.60;;;90.40;;
7881;SDS011;3986;41.884;23.466;2022-11-14T08:07:55;123.47;;;103.43;;
7881;SDS011;3986;41.884;23.466;2022-11-14T08:10:21;126.00;;;99.77;;
7881;SDS011;3986;41.884;23.466;2022-11-14T08:12:55;113.83;;;94.13;;
7881;SDS011;3986;41.884;23.466;2022-11-14T08:15:24;113.13;;;94.73;;
7881;SDS011;3986;41.884;23.466;2022-11-14T08:17:51;123.23;;;102.00;;
7881;SDS011;3986;41.884;23.466;2022-11-14T08:20:18;141.10;;;101.20;;
7881;SDS011;3986;41.884;23.466;2022-11-14T08:22:45;106.07;;;94.33;;
7881;SDS011;3986;41.884;23.466;2022-11-14T08:25:13;135.33;;;95.80;;
7881;SDS011;3986;41.884;23.466;2022-11-14T08:27:40;154.67;;;93.70;;
7881;SDS011;3986;41.884;23.466;2022-11-14T08:30:07;113.37;;;85.63;;
7881;SDS011;3986;41.884;23.466;2022-11-14T08:32:35;107.37;;;89.10;;
7881;SDS011;3986;41.884;23.466;2022-11-14T08:35:02;108.63;;;89.07;;
7881;SDS011;3986;41.884;23.466;2022-11-14T08:37:29;104.80;;;81.53;;
7881;SDS011;3986;41.884;23.466;2022-11-14T08:39:56;101.20;;;79.75;;
7881;SDS011;3986;41.884;23.466;2022-11-14T08:42:24;93.00;;;81.45;;
7881;SDS011;3986;41.884;23.466;2022-11-14T08:44:51;90.18;;;80.53;;
7881;SDS011;3986;41.884;23.466;2022-11-14T08:47:18;83.35;;;74.90;;
7881;SDS011;3986;41.884;23.466;2022-11-14T08:49:44;101.07;;;80.88;;
7881;SDS011;3986;41.884;23.466;2022-11-14T08:52:11;84.18;;;75.72;;
7881;SDS011;3986;41.884;23.466;2022-11-14T08:54:38;97.10;;;74.70;;
7881;SDS011;3986;41.884;23.466;2022-11-14T08:57:05;85.00;;;68.15;;
7881;SDS011;3986;41.884;23.466;2022-11-14T08:59:33;83.82;;;67.47;;
7881;SDS011;3986;41.884;23.466;2022-11-14T09:02:00;82.82;;;55.95;;
7881;SDS011;3986;41.884;23.466;2022-11-14T09:04:27;62.63;;;49.78;;
7881;SDS011;3986;41.884;23.466;2022-11-14T09:06:54;56.22;;;46.40;;
7881;SDS011;3986;41.884;23.466;2022-11-14T09:09:21;73.43;;;46.42;;
7881;SDS011;3986;41.884;23.466;2022-11-14T09:11:48;68.35;;;43.92;;
7881;SDS011;3986;41.884;23.466;2022-11-14T09:14:15;61.90;;;44.65;;
7881;SDS011;3986;41.884;23.466;2022-11-14T09:16:43;58.58;;;36.63;;
7881;SDS011;3986;41.884;23.466;2022-11-14T09:19:12;56.20;;;37.30;;
7881;SDS011;3986;41.884;23.466;2022-11-14T09:21:39;50.13;;;36.45;;
7881;SDS011;3986;41.884;23.466;2022-11-14T09:24:06;69.03;;;35.25;;
7881;SDS011;3986;41.884;23.466;2022-11-14T09:26:33;75.63;;;35.03;;
7881;SDS011;3986;41.884;23.466;2022-11-14T09:29:00;45.17;;;28.98;;
7881;SDS011;3986;41.884;23.466;2022-11-14T09:31:27;39.47;;;29.50;;
7881;SDS011;3986;41.884;23.466;2022-11-14T09:33:56;43.85;;;27.55;;
7881;SDS011;3986;41.884;23.466;2022-11-14T09:36:23;36.55;;;25.02;;
7881;SDS011;3986;41.884;23.466;2022-11-14T09:38:49;42.47;;;25.45;;
7881;SDS011;3986;41.884;23.466;2022-11-14T09:41:23;55.47;;;26.65;;
7881;SDS011;3986;41.884;23.466;2022-11-14T09:44:04;58.35;;;25.77;;
7881;SDS011;3986;41.884;23.466;2022-11-14T09:46:52;43.42;;;25.77;;
7881;SDS011;3986;41.884;23.466;2022-11-14T09:49:33;75.65;;;28.02;;
7881;SDS011;3986;41.884;23.466;2022-11-14T09:52:04;81.07;;;27.70;;
7881;SDS011;3986;41.884;23.466;2022-11-14T09:54:43;64.35;;;26.50;;
7881;SDS011;3986;41.884;23.466;2022-11-14T09:57:15;94.97;;;27.48;;
7881;SDS011;3986;41.884;23.466;2022-11-14T09:59:43;56.08;;;24.38;;
7881;SDS011;3986;41.884;23.466;2022-11-14T10:02:22;152.00;;;33.42;;
7881;SDS011;3986;41.884;23.466;2022-11-14T10:05:00;76.97;;;25.67;;
7881;SDS011;3986;41.884;23.466;2022-11-14T10:07:43;53.83;;;23.80;;
7881;SDS011;3986;41.884;23.466;2022-11-14T10:10:20;77.55;;;26.38;;
7881;SDS011;3986;41.884;23.466;2022-11-14T10:13:00;52.72;;;25.60;;
7881;SDS011;3986;41.884;23.466;2022-11-14T10:15:39;78.18;;;35.88;;
7881;SDS011;3986;41.884;23.466;2022-11-14T10:18:12;69.47;;;29.48;;
7881;SDS011;3986;41.884;23.466;2022-11-14T10:21:01;53.53;;;31.73;;
7881;SDS011;3986;41.884;23.466;2022-11-14T10:23:39;46.78;;;26.67;;
7881;SDS011;3986;41.884;23.466;2022-11-14T10:26:13;83.50;;;31.17;;
7881;SDS011;3986;41.884;23.466;2022-11-14T10:28:46;59.05;;;26.10;;
7881;SDS011;3986;41.884;23.466;2022-11-14T10:31:21;100.88;;;24.40;;
7881;SDS011;3986;41.884;23.466;2022-11-14T10:33:57;84.55;;;23.77;;
7881;SDS011;3986;41.884;23.466;2022-11-14T10:36:33;82.10;;;24.42;;
7881;SDS011;3986;41.884;23.466;2022-11-14T10:39:14;61.13;;;22.73;;
7881;SDS011;3986;41.884;23.466;2022-11-14T10:41:44;72.22;;;23.17;;
7881;SDS011;3986;41.884;23.466;2022-11-14T10:44:15;91.20;;;24.08;;
7881;SDS011;3986;41.884;23.466;2022-11-14T10:46:57;45.40;;;20.88;;
7881;SDS011;3986;41.884;23.466;2022-11-14T10:49:29;78.22;;;22.15;;
7881;SDS011;3986;41.884;23.466;2022-11-14T10:52:02;55.83;;;21.17;;
7881;SDS011;3986;41.884;23.466;2022-11-14T10:54:32;85.45;;;24.05;;
7881;SDS011;3986;41.884;23.466;2022-11-14T10:57:11;91.35;;;20.98;;
7881;SDS011;3986;41.884;23.466;2022-11-14T10:59:40;81.47;;;19.38;;
7881;SDS011;3986;41.884;23.466;2022-11-14T11:02:08;47.45;;;18.05;;
7881;SDS011;3986;41.884;23.466;2022-11-14T11:04:36;84.70;;;18.23;;
7881;SDS011;3986;41.884;23.466;2022-11-14T11:07:24;89.38;;;17.60;;
7881;SDS011;3986;41.884;23.466;2022-11-14T11:10:18;136.05;;;23.25;;
7881;SDS011;3986;41.884;23.466;2022-11-14T11:13:04;36.88;;;15.73;;
7881;SDS011;3986;41.884;23.466;2022-11-14T11:15:31;71.82;;;21.15;;
7881;SDS011;3986;41.884;23.466;2022-11-14T11:18:13;63.78;;;18.02;;
7881;SDS011;3986;41.884;23.466;2022-11-14T11:20:59;55.80;;;15.77;;
7881;SDS011;3986;41.884;23.466;2022-11-14T11:23:30;56.90;;;17.20;;
7881;SDS011;3986;41.884;23.466;2022-11-14T11:26:00;78.00;;;17.45;;
7881;SDS011;3986;41.884;23.466;2022-11-14T11:28:30;38.65;;;14.57;;
7881;SDS011;3986;41.884;23.466;2022-11-14T11:30:59;56.80;;;17.60;;
7881;SDS011;3986;41.884;23.466;2022-11-14T11:33:27;79.63;;;18.55;;
7881;SDS011;3986;41.884;23.466;2022-11-14T11:35:55;77.72;;;18.67;;
7881;SDS011;3986;41.884;23.466;2022-11-14T11:38:26;58.60;;;18.67;;
7881;SDS011;3986;41.884;23.466;2022-11-14T11:40:58;73.57;;;24.58;;
7881;SDS011;3986;41.884;23.466;2022-11-14T11:43:32;71.60;;;18.63;;
7881;SDS011;3986;41.884;23.466;2022-11-14T11:46:05;57.75;;;17.02;;
7881;SDS011;3986;41.884;23.466;2022-11-14T11:48:38;30.42;;;15.27;;
7881;SDS011;3986;41.884;23.466;2022-11-14T11:51:09;35.47;;;14.20;;
7881;SDS011;3986;41.884;23.466;2022-11-14T11:53:42;55.00;;;14.55;;
7881;SDS011;3986;41.884;23.466;2022-11-14T11:56:14;61.30;;;15.13;;
7881;SDS011;3986;41.884;23.466;2022-11-14T11:58:46;63.53;;;14.25;;
7881;SDS011;3986;41.884;23.466;2022-11-14T12:01:15;54.13;;;15.07;;
7881;SDS011;3986;41.884;23.466;2022-11-14T12:03:45;82.45;;;14.63;;
7881;SDS011;3986;41.884;23.466;2022-11-14T12:06:14;82.25;;;16.27;;
7881;SDS011;3986;41.884;23.466;2022-11-14T12:08:46;83.68;;;15.95;;
7881;SDS011;3986;41.884;23.466;2022-11-14T12:11:25;88.68;;;24.35;;
7881;SDS011;3986;41.884;23.466;2022-11-14T12:14:11;118.40;;;19.08;;
7881;SDS011;3986;41.884;23.466;2022-11-14T12:16:59;107.20;;;17.15;;
7881;SDS011;3986;41.884;23.466;2022-11-14T12:19:50;76.90;;;16.92;;
7881;SDS011;3986;41.884;23.466;2022-11-14T12:28:53;70.43;;;15.23;;
7881;SDS011;3986;41.884;23.466;2022-11-14T12:31:26;68.57;;;15.38;;
7881;SDS011;3986;41.884;23.466;2022-11-14T12:33:57;81.70;;;14.80;;
7881;SDS011;3986;41.884;23.466;2022-11-14T12:36:26;88.00;;;12.57;;
7881;SDS011;3986;41.884;23.466;2022-11-14T12:38:55;104.50;;;19.00;;
7881;SDS011;3986;41.884;23.466;2022-11-14T12:41:24;80.35;;;16.05;;
7881;SDS011;3986;41.884;23.466;2022-11-14T12:43:55;114.57;;;14.30;;
7881;SDS011;3986;41.884;23.466;2022-11-14T12:49:55;118.65;;;14.52;;
7881;SDS011;3986;41.884;23.466;2022-11-14T12:58:22;111.78;;;14.82;;
7881;SDS011;3986;41.884;23.466;2022-11-14T13:01:02;111.05;;;13.90;;
7881;SDS011;3986;41.884;23.466;2022-11-14T13:03:48;81.78;;;11.95;;
7881;SDS011;3986;41.884;23.466;2022-11-14T13:06:31;70.63;;;11.82;;
7881;SDS011;3986;41.884;23.466;2022-11-14T13:15:20;65.25;;;13.38;;
7881;SDS011;3986;41.884;23.466;2022-11-14T13:18:12;45.83;;;12.18;;
7881;SDS011;3986;41.884;23.466;2022-11-14T13:21:01;53.22;;;12.98;;
7881;SDS011;3986;41.884;23.466;2022-11-14T13:23:54;62.58;;;12.43;;
7881;SDS011;3986;41.884;23.466;2022-11-14T13:26:41;48.28;;;13.90;;
7881;SDS011;3986;41.884;23.466;2022-11-14T13:48:06;67.80;;;13.52;;
7881;SDS011;3986;41.884;23.466;2022-11-14T13:50:51;58.03;;;11.57;;
7881;SDS011;3986;41.884;23.466;2022-11-14T13:53:25;66.57;;;13.65;;
7881;SDS011;3986;41.884;23.466;2022-11-14T13:55:55;94.68;;;16.65;;
7881;SDS011;3986;41.884;23.466;2022-11-14T13:58:30;112.80;;;17.77;;
7881;SDS011;3986;41.884;23.466;2022-11-14T14:01:28;48.95;;;13.68;;
7881;SDS011;3986;41.884;23.466;2022-11-14T14:04:16;61.40;;;13.95;;
7881;SDS011;3986;41.884;23.466;2022-11-14T14:06:56;84.60;;;16.38;;
7881;SDS011;3986;41.884;23.466;2022-11-14T14:09:35;94.38;;;18.10;;
7881;SDS011;3986;41.884;23.466;2022-11-14T14:15:03;55.58;;;15.93;;
7881;SDS011;3986;41.884;23.466;2022-11-14T14:17:41;64.88;;;16.33;;
7881;SDS011;3986;41.884;23.466;2022-11-14T14:20:24;43.78;;;16.83;;
7881;SDS011;3986;41.884;23.466;2022-11-14T14:23:05;40.83;;;18.83;;
7881;SDS011;3986;41.884;23.466;2022-11-14T14:25:44;60.28;;;22.17;;
7881;SDS011;3986;41.884;23.466;2022-11-14T14:28:19;110.18;;;22.52;;
7881;SDS011;3986;41.884;23.466;2022-11-14T14:31:01;161.57;;;29.80;;
7881;SDS011;3986;41.884;23.466;2022-11-14T14:33:38;174.82;;;31.05;;
7881;SDS011;3986;41.884;23.466;2022-11-14T14:36:15;147.35;;;32.83;;
7881;SDS011;3986;41.884;23.466;2022-11-14T14:38:48;62.67;;;44.75;;
7881;SDS011;3986;41.884;23.466;2022-11-14T14:41:17;49.90;;;34.85;;
7881;SDS011;3986;41.884;23.466;2022-11-14T14:43:52;67.97;;;32.10;;
7881;SDS011;3986;41.884;23.466;2022-11-14T14:46:24;62.90;;;36.80;;
7881;SDS011;3986;41.884;23.466;2022-11-14T14:48:53;100.03;;;35.83;;
7881;SDS011;3986;41.884;23.466;2022-11-14T14:51:28;80.20;;;39.28;;
7881;SDS011;3986;41.884;23.466;2022-11-14T14:53:58;80.28;;;40.53;;
7881;SDS011;3986;41.884;23.466;2022-11-14T14:56:26;86.82;;;39.05;;
7881;SDS011;3986;41.884;23.466;2022-11-14T14:58:53;76.63;;;43.03;;
7881;SDS011;3986;41.884;23.466;2022-11-14T15:01:20;83.90;;;44.38;;
7881;SDS011;3986;41.884;23.466;2022-11-14T15:03:52;102.77;;;52.87;;
7881;SDS011;3986;41.884;23.466;2022-11-14T15:06:25;98.32;;;59.13;;
7881;SDS011;3986;41.884;23.466;2022-11-14T15:08:55;100.35;;;56.63;;
7881;SDS011;3986;41.884;23.466;2022-11-14T15:11:25;73.97;;;52.42;;
7881;SDS011;3986;41.884;23.466;2022-11-14T15:13:53;94.90;;;47.08;;
7881;SDS011;3986;41.884;23.466;2022-11-14T15:16:22;92.40;;;41.70;;
7881;SDS011;3986;41.884;23.466;2022-11-14T15:18:51;76.77;;;41.70;;
7881;SDS011;3986;41.884;23.466;2022-11-14T15:21:23;74.60;;;41.27;;
7881;SDS011;3986;41.884;23.466;2022-11-14T15:24:00;117.03;;;75.53;;
7881;SDS011;3986;41.884;23.466;2022-11-14T15:26:37;96.90;;;50.50;;
7881;SDS011;3986;41.884;23.466;2022-11-14T15:29:05;100.47;;;55.27;;
7881;SDS011;3986;41.884;23.466;2022-11-14T15:31:32;131.77;;;62.50;;
7881;SDS011;3986;41.884;23.466;2022-11-14T15:34:02;127.07;;;64.10;;